KAZO

Kalamazoo / Battle Creek International Airport

Kalamazoo, Michigan, USA
KAZO 251740Z 2518/2618 33011G19KT P6SM FEW040 FM260000 33005KT P6SM SKC FM261500 25007KT P6SM SCT250
Issued Valid From Valid To
Apr-25 @ 17:40 UTC
(31 minutes ago)
Apr-25 @ 18:00 UTC
(11 minutes ago)
Apr-26 @ 18:00 UTC
(in 24 hours)
Apr-25 @ 18:00 to Apr-26 @ 00:00
KAZO 251740Z 2518/2618 33011G19KT P6SM FEW040
Wind Visibility Clouds
330° at 11 knots
 Gusting to 19 knots
Greater than 6 miles
  • Few at 4,000' AGL
From Apr-26 @ 00:00 to Apr-26 @ 15:00
FM260000 33005KT P6SM SKC
Wind Visibility Clouds
330° at 5 knots Greater than 6 miles
  • Clear skies
From Apr-26 @ 15:00 to Apr-26 @ 18:00
FM261500 25007KT P6SM SCT250
Wind Visibility Clouds
250° at 7 knots Greater than 6 miles
  • Scattered at 25,000' AGL
KAZO 251740Z 2518/2618 33011G19KT P6SM FEW040 FM260000 33005KT P6SM SKC FM261500 25007KT P6SM SCT250
Issued Apr-25 @ 17:40 UTC
(31 minutes ago)
Valid From Apr-25 @ 18:00 UTC
(11 minutes ago)
Valid To Apr-26 @ 18:00 UTC
(in 24 hours)
Apr-25 @ 18:00 - Apr-26 @ 00:00
Wind Visibility
330° at 11 knots
 Gusting to 19 knots
Greater than 6 miles
Clouds
  • Few at 4,000' AGL
From Apr-26 @ 00:00 - Apr-26 @ 15:00
Wind Visibility
330° at 5 knots Greater than 6 miles
Clouds
  • Clear skies
From Apr-26 @ 15:00 - Apr-26 @ 18:00
Wind Visibility
250° at 7 knots Greater than 6 miles
Clouds
  • Scattered at 25,000' AGL